Time;durP1;ratioP1;P1;durP2;ratioP2;P2;SDS_P1;SDS_P2;PMS_P1;PMS_P2;Temp;Humidity;BMP_temperature;BMP_pressure;BME280_temperature;BME280_humidity;BME280_pressure;Samples;Min_cycle;Max_cycle;Signal;HPM_P1;HPM_P2
2023/08/19 00:00:29;;;;;;;9.00;7.90;;;;;;;21.28;79.45;100331.77;105692;1258;72416;-77
2023/08/19 00:02:57;;;;;;;10.10;8.30;;;;;;;21.27;79.66;100332.27;105843;1259;60614;-78
2023/08/19 00:05:25;;;;;;;11.50;7.90;;;;;;;21.25;79.32;100331.92;105865;1254;60942;-76
2023/08/19 00:07:52;;;;;;;8.90;7.50;;;;;;;21.22;79.20;100329.21;105347;1259;72549;-78
2023/08/19 00:10:19;;;;;;;9.70;8.10;;;;;;;21.21;79.60;100327.45;105753;1254;70171;-77
2023/08/19 00:12:47;;;;;;;8.60;7.80;;;;;;;21.25;80.17;100325.73;107527;1254;71395;-76
2023/08/19 00:15:15;;;;;;;9.30;8.30;;;;;;;21.30;79.83;100329.45;108044;1254;60401;-78
2023/08/19 00:17:42;;;;;;;8.50;7.70;;;;;;;21.30;80.18;100328.79;108039;1254;60329;-77
2023/08/19 00:20:10;;;;;;;9.50;8.10;;;;;;;21.29;79.87;100328.81;106169;1259;72715;-77
2023/08/19 00:22:38;;;;;;;10.50;8.00;;;;;;;21.28;79.97;100330.90;105750;1260;69153;-77
2023/08/19 00:25:05;;;;;;;10.70;8.00;;;;;;;21.26;79.82;100327.96;105749;1260;73600;-76
2023/08/19 00:27:33;;;;;;;13.60;8.60;;;;;;;21.24;80.15;100326.41;105641;1261;60415;-77
2023/08/19 00:30:00;;;;;;;8.80;7.00;;;;;;;21.29;80.19;100324.81;105657;1260;60410;-77
2023/08/19 00:32:28;;;;;;;11.90;7.90;;;;;;;21.34;79.88;100324.77;105754;1254;72548;-78
2023/08/19 00:34:56;;;;;;;9.90;7.60;;;;;;;21.34;79.98;100327.30;105662;1254;70129;-76
2023/08/19 00:37:23;;;;;;;8.90;7.70;;;;;;;21.31;80.20;100328.08;105945;1259;71433;-78
2023/08/19 00:39:51;;;;;;;10.40;8.00;;;;;;;21.27;79.96;100327.36;106776;1260;60319;-77
2023/08/19 00:42:18;;;;;;;11.00;7.20;;;;;;;21.24;79.97;100326.78;106510;1257;60460;-74
2023/08/19 00:44:45;;;;;;;11.40;7.40;;;;;;;21.25;80.20;100326.30;106174;1260;74152;-78
2023/08/19 00:47:13;;;;;;;9.90;8.40;;;;;;;21.27;80.49;100324.50;105741;1258;70596;-77
2023/08/19 00:49:40;;;;;;;10.50;8.20;;;;;;;21.25;80.53;100325.90;105739;1256;72711;-75
2023/08/19 00:52:08;;;;;;;8.90;8.10;;;;;;;21.21;80.30;100319.40;105585;1260;60482;-76
2023/08/19 00:54:35;;;;;;;9.90;8.90;;;;;;;21.19;80.07;100318.19;105588;1254;60446;-75
2023/08/19 00:57:03;;;;;;;11.80;7.90;;;;;;;21.15;80.79;100318.89;105760;1257;73819;-75
2023/08/19 00:59:30;;;;;;;9.40;7.20;;;;;;;21.19;81.08;100316.31;105540;1254;69102;-77
2023/08/19 01:01:59;;;;;;;8.80;8.00;;;;;;;21.24;80.55;100313.36;105776;1254;71538;-78
2023/08/19 01:04:27;;;;;;;9.00;7.80;;;;;;;21.22;80.79;100311.96;105685;1259;60457;-75
2023/08/19 01:07:00;;;;;;;9.60;8.70;;;;;;;21.19;80.48;100311.02;105466;1257;60440;-75
2023/08/19 01:09:37;;;;;;;9.80;8.50;;;;;;;21.15;80.51;100309.50;105365;1255;73819;-75
2023/08/19 01:12:09;;;;;;;9.60;8.40;;;;;;;21.14;80.25;100313.46;105737;1255;70464;-74
2023/08/19 01:15:04;;;;;;;9.40;8.50;;;;;;;21.19;80.10;100310.16;105265;1262;71416;-76
2023/08/19 01:17:32;;;;;;;9.10;8.20;;;;;;;21.24;80.11;100312.99;105316;1253;60460;-77
2023/08/19 01:20:00;;;;;;;10.10;8.10;;;;;;;21.21;79.98;100312.02;105703;1255;60576;-77
2023/08/19 01:22:45;;;;;;;13.40;8.90;;;;;;;21.19;80.12;100311.17;105714;1254;74756;-75
2023/08/19 01:25:13;;;;;;;9.10;7.80;;;;;;;21.16;80.63;100311.19;105244;1255;70039;-74
2023/08/19 01:27:40;;;;;;;8.40;7.50;;;;;;;21.20;80.40;100310.88;105403;1260;71415;-75
2023/08/19 01:30:08;;;;;;;12.60;8.60;;;;;;;21.20;80.66;100307.20;105639;1259;60643;-73
2023/08/19 01:32:36;;;;;;;9.10;8.30;;;;;;;21.14;80.78;100310.05;105740;1254;60672;-73
2023/08/19 01:35:05;;;;;;;10.10;8.70;;;;;;;21.07;81.08;100308.55;105684;1261;72641;-75
2023/08/19 01:37:43;;;;;;;11.40;8.30;;;;;;;21.01;81.39;100308.11;105356;1254;69961;-72
2023/08/19 01:40:13;;;;;;;9.50;7.70;;;;;;;21.00;81.27;100308.45;105569;1255;72711;-74
2023/08/19 01:42:40;;;;;;;10.40;7.80;;;;;;;21.08;81.34;100307.27;105440;1254;61811;-76
2023/08/19 01:45:08;;;;;;;11.40;8.50;;;;;;;21.12;81.51;100310.54;105580;1255;60462;-76
2023/08/19 01:47:39;;;;;;;8.80;8.00;;;;;;;21.11;81.36;100309.55;105799;1260;73854;-76
2023/08/19 01:50:07;;;;;;;12.90;9.10;;;;;;;21.08;80.99;100306.45;105665;1260;69050;-75
2023/08/19 01:52:35;;;;;;;10.50;8.30;;;;;;;21.03;81.13;100299.95;106215;1254;72680;-75
2023/08/19 01:55:04;;;;;;;9.10;8.20;;;;;;;20.99;81.24;100300.80;106678;1254;61761;-75
2023/08/19 01:57:33;;;;;;;8.80;8.00;;;;;;;21.00;81.15;100303.33;106341;1254;60450;-75
2023/08/19 02:00:01;;;;;;;17.90;8.10;;;;;;;21.00;81.41;100303.25;105520;1261;73846;-75
2023/08/19 02:02:40;;;;;;;9.30;8.50;;;;;;;20.94;81.67;100302.43;105837;1253;70095;-75
2023/08/19 02:05:12;;;;;;;10.20;8.90;;;;;;;20.89;81.86;100303.48;105936;1253;72877;-76
2023/08/19 02:07:40;;;;;;;9.10;8.10;;;;;;;20.84;82.40;100303.23;105853;1254;61102;-79
2023/08/19 02:10:08;;;;;;;10.40;8.60;;;;;;;20.86;82.12;100309.95;105872;1257;60515;-75
2023/08/19 02:12:35;;;;;;;10.90;8.40;;;;;;;20.89;81.95;100309.67;105463;1255;73860;-76
2023/08/19 02:15:04;;;;;;;13.10;8.80;;;;;;;20.87;82.07;100311.48;105709;1254;70331;-75
2023/08/19 02:17:31;;;;;;;9.90;8.70;;;;;;;20.81;82.17;100313.06;105830;1254;72675;-76
2023/08/19 02:19:59;;;;;;;11.50;8.50;;;;;;;20.77;82.39;100311.73;105751;1255;61725;-76
2023/08/19 02:22:27;;;;;;;13.10;9.60;;;;;;;20.80;82.20;100312.74;105766;1257;60517;-76
2023/08/19 02:24:54;;;;;;;12.40;8.70;;;;;;;20.84;82.78;100312.30;105521;1254;72635;-78
2023/08/19 02:27:22;;;;;;;11.10;9.10;;;;;;;20.81;83.13;100316.19;105495;1260;68759;-75
2023/08/19 02:29:49;;;;;;;10.90;8.80;;;;;;;20.78;83.37;100313.23;105773;1257;72768;-78
2023/08/19 02:32:16;;;;;;;9.90;8.70;;;;;;;20.78;83.98;100315.31;105673;1259;60739;-77
2023/08/19 02:34:44;;;;;;;11.10;8.40;;;;;;;20.82;83.56;100315.64;105828;1257;59364;-78
2023/08/19 02:37:13;;;;;;;9.90;8.90;;;;;;;20.85;83.41;100317.10;105776;1254;73881;-76
2023/08/19 02:39:41;;;;;;;11.20;8.90;;;;;;;20.83;83.05;100321.06;105834;1254;70125;-77
2023/08/19 02:42:08;;;;;;;12.20;8.90;;;;;;;20.78;83.05;100326.44;105966;1254;72431;-77
2023/08/19 02:44:35;;;;;;;11.10;8.80;;;;;;;20.71;83.43;100324.58;106073;1253;60534;-78
2023/08/19 02:47:03;;;;;;;9.80;8.60;;;;;;;20.71;83.70;100324.63;106117;1254;60345;-77
2023/08/19 02:49:30;;;;;;;11.70;9.40;;;;;;;20.74;83.47;100330.32;105616;1260;72612;-76
2023/08/19 02:51:59;;;;;;;12.20;10.20;;;;;;;20.71;83.91;100329.24;105555;1260;69183;-78
2023/08/19 02:54:26;;;;;;;11.90;9.60;;;;;;;20.66;84.31;100328.98;105837;1260;71383;-77
2023/08/19 02:56:53;;;;;;;10.20;9.00;;;;;;;20.64;84.68;100328.36;105478;1256;60967;-77
2023/08/19 02:59:21;;;;;;;10.80;8.90;;;;;;;20.70;84.32;100330.16;105435;1259;60489;-79
2023/08/19 03:01:48;;;;;;;9.80;8.80;;;;;;;20.75;84.05;100330.56;105874;1254;74076;-77
2023/08/19 03:04:16;;;;;;;10.40;9.30;;;;;;;20.73;84.13;100335.41;106095;1260;69179;-76
2023/08/19 03:06:43;;;;;;;10.40;9.50;;;;;;;20.71;84.53;100333.77;106551;1261;70657;-75
2023/08/19 03:09:11;;;;;;;9.70;8.70;;;;;;;20.69;84.48;100335.33;107346;1253;60471;-77
2023/08/19 03:11:41;;;;;;;8.70;7.90;;;;;;;20.75;84.08;100336.89;107556;1258;60340;-79
2023/08/19 03:14:09;;;;;;;9.50;8.20;;;;;;;20.83;83.86;100336.14;106041;1254;74699;-79
2023/08/19 03:16:36;;;;;;;9.40;8.50;;;;;;;20.83;83.78;100336.36;105704;1254;70470;-79
2023/08/19 03:19:05;;;;;;;11.60;9.50;;;;;;;20.80;84.09;100338.08;105951;1254;70735;-76
2023/08/19 03:21:33;;;;;;;9.80;8.80;;;;;;;20.78;84.64;100342.05;105708;1256;61652;-80
2023/08/19 03:24:00;;;;;;;8.40;7.60;;;;;;;20.82;84.47;100339.11;105727;1254;60994;-80
2023/08/19 03:26:28;;;;;;;11.30;9.00;;;;;;;20.89;84.55;100339.75;106699;1259;74231;-78
2023/08/19 03:28:55;;;;;;;10.50;9.40;;;;;;;20.90;84.61;100341.27;106159;1254;68755;-78
2023/08/19 03:31:23;;;;;;;10.40;9.30;;;;;;;20.88;84.29;100339.06;105796;1259;72788;-78
2023/08/19 03:33:52;;;;;;;9.00;8.10;;;;;;;20.84;84.49;100338.17;105848;1254;61890;-80
2023/08/19 03:36:19;;;;;;;9.50;8.60;;;;;;;20.89;84.71;100335.39;105657;1254;359509;-78
2023/08/19 03:40:49;;;;;;;12.20;9.40;;;;;;;20.99;84.52;100334.55;103407;1285;600116;-79
2023/08/19 03:43:17;;;;;;;11.00;9.60;;;;;;;20.97;84.85;100326.88;105052;1267;60057;-78
2023/08/19 03:45:44;;;;;;;13.20;10.00;;;;;;;20.99;84.34;100322.26;105017;1267;60233;-79
2023/08/19 03:48:13;;;;;;;10.00;8.80;;;;;;;21.02;84.11;100324.89;104863;1267;72277;-79
2023/08/19 03:50:41;;;;;;;10.10;9.10;;;;;;;21.10;84.08;100319.86;105003;1270;69480;-77
2023/08/19 03:53:08;;;;;;;10.00;9.10;;;;;;;21.17;84.14;100323.15;105084;1267;71250;-78
2023/08/19 03:55:36;;;;;;;10.50;9.50;;;;;;;21.21;84.59;100325.45;105016;1263;174329;-79
2023/08/19 03:58:03;;;;;;;13.40;10.10;;;;;;;21.21;84.80;100326.44;105144;1269;60038;-81
2023/08/19 04:00:31;;;;;;;9.80;8.70;;;;;;;21.25;85.29;100327.35;105149;1264;72035;-80
2023/08/19 04:02:58;;;;;;;9.20;8.10;;;;;;;21.42;85.44;100327.21;105783;1259;70338;-79
2023/08/19 04:05:26;;;;;;;10.10;9.20;;;;;;;21.62;85.35;100332.83;106468;1258;71650;-79
2023/08/19 04:07:53;;;;;;;11.90;9.60;;;;;;;21.74;85.67;100332.63;106751;1253;59998;-77
2023/08/19 04:10:21;;;;;;;10.50;9.50;;;;;;;21.83;85.48;100332.52;106522;1253;60028;-78
2023/08/19 04:12:48;;;;;;;9.90;8.80;;;;;;;21.95;85.42;100332.13;106299;1253;71810;-78
2023/08/19 04:15:17;;;;;;;10.30;9.10;;;;;;;22.11;85.51;100333.39;106059;1251;70655;-80
2023/08/19 04:17:45;;;;;;;11.00;9.30;;;;;;;22.27;85.11;100329.71;106631;1251;72689;-81
2023/08/19 04:20:13;;;;;;;9.50;8.70;;;;;;;22.37;84.37;100334.04;106963;1257;60489;-78
2023/08/19 04:22:44;;;;;;;11.10;10.10;;;;;;;22.47;83.86;100332.50;109047;1254;59276;-81
2023/08/19 04:25:12;;;;;;;12.80;9.70;;;;;;;22.55;83.09;100332.05;108755;1251;71893;-79
2023/08/19 04:27:39;;;;;;;10.70;8.80;;;;;;;22.65;82.57;100325.56;107427;1251;68782;-78
2023/08/19 04:30:09;;;;;;;9.90;9.00;;;;;;;22.86;81.87;100323.38;109179;1254;72385;-78
2023/08/19 04:32:36;;;;;;;10.80;9.60;;;;;;;23.04;81.07;100323.95;109255;1254;59250;-79
2023/08/19 04:35:04;;;;;;;10.60;9.50;;;;;;;23.12;80.78;100323.77;109220;1251;59618;-79
2023/08/19 04:37:32;;;;;;;13.10;10.20;;;;;;;23.17;80.03;100318.85;106230;1251;71620;-79
2023/08/19 04:40:04;;;;;;;11.50;9.80;;;;;;;23.21;79.24;100320.16;106298;1254;68421;-82
2023/08/19 04:42:36;;;;;;;11.40;9.70;;;;;;;23.23;78.78;100318.66;105812;1258;71182;-79
2023/08/19 04:45:05;;;;;;;10.80;9.60;;;;;;;23.31;78.58;100319.00;106076;1257;60755;-79
2023/08/19 04:47:35;;;;;;;13.00;10.00;;;;;;;23.41;78.30;100314.65;107340;1253;58971;-81
2023/08/19 04:50:08;;;;;;;12.30;10.10;;;;;;;23.48;78.58;100313.80;106236;1254;71795;-81
2023/08/19 04:52:37;;;;;;;11.10;10.20;;;;;;;23.54;78.83;100313.38;105745;1255;70449;-79
2023/08/19 04:55:08;;;;;;;11.90;10.80;;;;;;;23.54;78.55;100312.15;105810;1254;72637;-79
2023/08/19 04:57:36;;;;;;;13.40;9.90;;;;;;;23.55;78.94;100316.29;105840;1254;61672;-77
2023/08/19 05:00:04;;;;;;;13.50;9.90;;;;;;;23.63;79.10;100313.64;105734;1254;59769;-79
2023/08/19 05:02:31;;;;;;;15.50;10.90;;;;;;;23.72;79.04;100312.23;105609;1260;72182;-79
2023/08/19 05:04:59;;;;;;;11.20;10.20;;;;;;;23.75;78.58;100312.94;105799;1254;70042;-78
2023/08/19 05:07:26;;;;;;;13.90;11.20;;;;;;;23.77;77.98;100320.42;105567;1254;72702;-78
2023/08/19 05:09:54;;;;;;;13.40;12.00;;;;;;;23.80;78.40;100320.77;105684;1254;59791;-79
2023/08/19 05:12:25;;;;;;;16.80;11.40;;;;;;;23.83;77.83;100321.48;105730;1259;60260;-79
2023/08/19 05:14:52;;;;;;;13.00;10.90;;;;;;;23.91;77.78;100321.60;105724;1254;71585;-77
2023/08/19 05:17:20;;;;;;;12.70;11.40;;;;;;;24.01;77.35;100320.67;106296;1259;69060;-80
2023/08/19 05:19:48;;;;;;;12.50;10.70;;;;;;;24.05;77.54;100320.38;106371;1259;71287;-80
2023/08/19 05:22:15;;;;;;;12.40;11.00;;;;;;;24.08;76.87;100321.85;105781;1258;60022;-81
2023/08/19 05:24:43;;;;;;;11.30;10.30;;;;;;;24.12;76.76;100324.64;106749;1254;59237;-76
2023/08/19 05:27:10;;;;;;;12.70;11.50;;;;;;;24.19;76.66;100331.48;106160;1254;71482;-82
2023/08/19 05:29:37;;;;;;;11.50;10.00;;;;;;;24.28;75.85;100326.84;105926;1253;69219;-82
2023/08/19 05:32:05;;;;;;;14.00;11.00;;;;;;;24.37;76.24;100325.71;105817;1259;72537;-81
2023/08/19 05:34:33;;;;;;;12.80;11.40;;;;;;;24.42;77.28;100327.48;106166;1257;60043;-76
2023/08/19 05:37:04;;;;;;;12.10;10.80;;;;;;;24.46;76.34;100325.33;106842;1253;59637;-77
2023/08/19 05:39:32;;;;;;;13.50;11.70;;;;;;;24.50;75.85;100321.52;108659;1254;71925;-78
2023/08/19 05:41:59;;;;;;;13.30;11.90;;;;;;;24.57;75.64;100325.88;107954;1257;68743;-79
2023/08/19 05:44:27;;;;;;;12.40;11.10;;;;;;;24.64;75.11;100330.86;106731;1254;71415;-77
2023/08/19 05:46:54;;;;;;;12.90;11.40;;;;;;;24.71;74.78;100331.98;105975;1256;60500;-77
2023/08/19 05:49:22;;;;;;;14.40;11.40;;;;;;;24.84;74.87;100332.11;105933;1254;59707;-77
2023/08/19 05:51:49;;;;;;;12.10;10.80;;;;;;;24.95;74.17;100332.99;105937;1259;73275;-78
2023/08/19 05:54:17;;;;;;;11.60;10.40;;;;;;;25.01;73.43;100326.10;105818;1254;69958;-79
2023/08/19 05:56:44;;;;;;;15.80;11.30;;;;;;;25.06;73.57;100327.05;105378;1257;72484;-79
2023/08/19 05:59:12;;;;;;;11.90;10.80;;;;;;;25.13;73.20;100330.36;105937;1254;59629;-80
2023/08/19 06:01:39;;;;;;;11.70;10.60;;;;;;;25.16;72.44;100332.14;105932;1259;59749;-79
2023/08/19 06:04:06;;;;;;;11.60;10.40;;;;;;;25.19;72.04;100331.75;105839;1254;77652;-77
2023/08/19 06:06:34;;;;;;;12.00;10.90;;;;;;;25.21;71.88;100335.43;105935;1253;70207;-77
2023/08/19 06:09:01;;;;;;;12.20;11.10;;;;;;;25.24;71.83;100335.05;105231;1260;73085;-77
2023/08/19 06:11:29;;;;;;;12.60;11.50;;;;;;;25.28;71.78;100335.06;105794;1259;59683;-77
2023/08/19 06:13:58;;;;;;;13.20;10.20;;;;;;;25.35;71.55;100335.31;105827;1255;59670;-77
2023/08/19 06:16:26;;;;;;;10.70;9.60;;;;;;;25.47;71.19;100337.05;105410;1259;73099;-77
2023/08/19 06:18:53;;;;;;;11.50;10.30;;;;;;;25.58;70.77;100342.08;105377;1259;70472;-78
2023/08/19 06:21:21;;;;;;;12.40;10.20;;;;;;;25.63;70.36;100335.40;105831;1256;72359;-80
2023/08/19 06:23:51;;;;;;;11.40;10.30;;;;;;;25.68;70.16;100339.92;105803;1259;59685;-75
2023/08/19 06:26:18;;;;;;;11.30;10.10;;;;;;;25.75;70.13;100338.04;105421;1254;59698;-78
2023/08/19 06:28:46;;;;;;;12.90;9.50;;;;;;;25.80;69.66;100337.08;105287;1253;71822;-77
2023/08/19 06:31:13;;;;;;;11.80;10.60;;;;;;;25.83;69.15;100338.02;105322;1259;69830;-79
2023/08/19 06:33:41;;;;;;;11.60;10.50;;;;;;;25.85;69.22;100339.26;105800;1257;71349;-79
2023/08/19 06:36:10;;;;;;;11.40;10.30;;;;;;;25.87;69.52;100336.61;105733;1256;59545;-78
2023/08/19 06:38:40;;;;;;;12.50;10.00;;;;;;;25.89;69.48;100336.95;105902;1258;60096;-75
2023/08/19 06:41:11;;;;;;;11.60;10.60;;;;;;;25.94;68.97;100338.05;105897;1258;73072;-79
2023/08/19 06:43:40;;;;;;;10.30;9.30;;;;;;;25.99;68.78;100343.73;106176;1254;69688;-79
2023/08/19 06:46:07;;;;;;;13.80;10.30;;;;;;;26.05;68.97;100344.98;105909;1254;72738;-79
2023/08/19 06:48:35;;;;;;;13.40;10.00;;;;;;;26.11;68.54;100349.14;105702;1258;59685;-80
2023/08/19 06:51:03;;;;;;;12.10;9.90;;;;;;;26.16;68.77;100354.52;106446;1254;62093;-78
2023/08/19 06:53:31;;;;;;;10.00;9.00;;;;;;;26.22;68.60;100358.45;107418;1253;73047;-78
2023/08/19 06:56:08;;;;;;;10.30;9.20;;;;;;;26.29;68.45;100361.20;106355;1254;69039;-78
2023/08/19 06:58:38;;;;;;;12.90;9.20;;;;;;;26.37;67.97;100363.45;106905;1255;71846;-76
2023/08/19 07:01:09;;;;;;;12.40;9.30;;;;;;;26.43;67.70;100365.67;107728;1253;59744;-79
2023/08/19 07:03:36;;;;;;;11.70;10.10;;;;;;;26.50;67.22;100362.42;107632;1254;59605;-77
2023/08/19 07:06:04;;;;;;;11.60;10.60;;;;;;;26.58;67.22;100362.98;106447;1258;71758;-79
2023/08/19 07:08:31;;;;;;;13.80;10.30;;;;;;;26.66;67.12;100361.55;106057;1257;68674;-78
2023/08/19 07:11:00;;;;;;;11.70;9.60;;;;;;;26.76;67.32;100361.85;105950;1254;71349;-78
2023/08/19 07:13:28;;;;;;;12.90;9.50;;;;;;;26.86;67.10;100363.34;105997;1254;60041;-78
2023/08/19 07:16:00;;;;;;;11.00;9.40;;;;;;;26.93;66.56;100360.30;105628;1254;60102;-81
2023/08/19 07:18:28;;;;;;;10.90;9.20;;;;;;;27.01;66.25;100363.18;105938;1259;73071;-80
2023/08/19 07:20:56;;;;;;;9.80;8.90;;;;;;;27.06;66.06;100362.89;105926;1254;69945;-79
2023/08/19 07:23:24;;;;;;;13.10;10.30;;;;;;;27.10;66.12;100363.23;105858;1260;73589;-80
2023/08/19 07:25:51;;;;;;;10.70;9.40;;;;;;;27.14;66.48;100365.40;105640;1257;61082;-81
2023/08/19 07:28:21;;;;;;;18.20;9.40;;;;;;;27.19;65.75;100366.45;106244;1255;59557;-77
2023/08/19 07:30:49;;;;;;;14.00;9.20;;;;;;;27.24;65.23;100360.98;106076;1256;73070;-81
2023/08/19 07:33:17;;;;;;;11.00;9.90;;;;;;;27.33;64.94;100359.21;106016;1254;70128;-82
2023/08/19 07:35:45;;;;;;;11.60;9.70;;;;;;;27.39;64.11;100359.01;106277;1259;72628;-80
2023/08/19 07:38:12;;;;;;;10.60;9.60;;;;;;;27.44;64.11;100358.83;106088;1255;59745;-79
2023/08/19 07:40:40;;;;;;;13.70;10.00;;;;;;;27.51;63.69;100358.69;105995;1253;59837;-81
2023/08/19 07:43:07;;;;;;;13.30;9.10;;;;;;;27.57;63.25;100355.44;105968;1254;71583;-79
2023/08/19 07:45:35;;;;;;;12.90;9.60;;;;;;;27.62;63.16;100358.79;105815;1258;69519;-79
2023/08/19 07:48:02;;;;;;;11.60;9.50;;;;;;;27.70;62.91;100356.96;106009;1253;72699;-81
2023/08/19 07:50:30;;;;;;;10.00;8.70;;;;;;;27.78;62.80;100357.66;105998;1254;60326;-80
2023/08/19 07:52:57;;;;;;;10.30;9.20;;;;;;;27.86;62.44;100354.58;106084;1253;60354;-81
2023/08/19 07:55:25;;;;;;;12.60;8.80;;;;;;;27.95;62.30;100352.99;106002;1260;73957;-81
2023/08/19 07:57:52;;;;;;;10.90;9.20;;;;;;;28.05;61.78;100352.41;106126;1254;68689;-80
2023/08/19 08:00:21;;;;;;;9.40;8.60;;;;;;;28.14;61.32;100353.14;106418;1254;72650;-81
2023/08/19 08:02:49;;;;;;;11.80;9.40;;;;;;;28.23;61.19;100355.84;106365;1257;60382;-80
2023/08/19 08:05:17;;;;;;;10.00;8.70;;;;;;;28.33;60.82;100354.48;106289;1252;60300;-80
2023/08/19 08:07:45;;;;;;;12.10;9.30;;;;;;;28.43;60.67;100353.34;106887;1254;72829;-80
2023/08/19 08:10:12;;;;;;;10.80;9.30;;;;;;;28.52;60.46;100354.25;107119;1256;70595;-79
2023/08/19 08:12:39;;;;;;;13.40;8.80;;;;;;;28.61;60.28;100350.33;106526;1259;72756;-78
2023/08/19 08:15:08;;;;;;;9.10;8.10;;;;;;;28.71;59.73;100350.21;106614;1254;60401;-76
2023/08/19 08:17:36;;;;;;;10.70;8.90;;;;;;;28.82;59.86;100347.59;106582;1254;60364;-78
2023/08/19 08:20:04;;;;;;;10.40;9.10;;;;;;;28.94;59.31;100344.28;106369;1258;73775;-77
2023/08/19 08:22:32;;;;;;;9.30;8.40;;;;;;;29.05;59.21;100345.19;106634;1254;70573;-78
2023/08/19 08:25:01;;;;;;;11.00;8.50;;;;;;;29.18;58.82;100345.84;106539;1257;73129;-75
2023/08/19 08:27:28;;;;;;;15.10;8.70;;;;;;;29.30;58.28;100343.80;105973;1254;60392;-76
2023/08/19 08:29:56;;;;;;;11.90;8.40;;;;;;;29.42;57.52;100342.77;105993;1258;60345;-79
2023/08/19 08:32:24;;;;;;;10.00;9.00;;;;;;;29.53;57.86;100340.09;105954;1252;73879;-77
2023/08/19 08:34:51;;;;;;;9.90;8.90;;;;;;;29.64;57.50;100333.21;105909;1259;68879;-75
2023/08/19 08:37:19;;;;;;;11.40;8.90;;;;;;;29.75;56.96;100337.38;105876;1254;72421;-76
2023/08/19 08:39:47;;;;;;;10.20;8.60;;;;;;;29.88;56.69;100334.16;105826;1254;60404;-74
2023/08/19 08:42:15;;;;;;;10.70;8.30;;;;;;;29.98;58.30;100339.58;106192;1254;60450;-74
2023/08/19 08:44:49;;;;;;;9.30;8.20;;;;;;;30.08;56.42;100334.97;106245;1254;73862;-74
2023/08/19 08:47:17;;;;;;;11.00;9.00;;;;;;;30.17;56.98;100338.14;106660;1257;69354;-75
2023/08/19 08:49:45;;;;;;;10.60;9.20;;;;;;;30.30;55.90;100333.78;106050;1253;70888;-73
2023/08/19 08:52:12;;;;;;;9.20;7.90;;;;;;;30.43;55.09;100330.75;106246;1253;60531;-76
2023/08/19 08:54:40;;;;;;;13.00;9.00;;;;;;;30.50;54.59;100332.28;106003;1254;60601;-75
2023/08/19 08:57:07;;;;;;;8.70;7.60;;;;;;;30.57;54.25;100335.98;105965;1254;72555;-76
2023/08/19 08:59:35;;;;;;;10.30;8.50;;;;;;;30.70;53.90;100331.56;105911;1257;69977;-74
2023/08/19 09:02:02;;;;;;;10.60;7.60;;;;;;;30.86;53.59;100334.15;105925;1254;71892;-74
2023/08/19 09:04:29;;;;;;;12.30;8.80;;;;;;;31.02;53.80;100334.13;106007;1254;60648;-73
2023/08/19 09:07:02;;;;;;;9.30;8.10;;;;;;;31.20;53.83;100334.38;106026;1252;60354;-75
2023/08/19 09:09:30;;;;;;;9.70;8.30;;;;;;;31.39;52.98;100330.63;105894;1254;75864;-75
2023/08/19 09:11:58;;;;;;;9.10;7.90;;;;;;;31.58;53.17;100326.42;105837;1259;70128;-75
2023/08/19 09:14:45;;;;;;;8.70;7.80;;;;;;;31.75;52.96;100327.79;105922;1254;70963;-74
2023/08/19 09:17:14;;;;;;;8.70;7.90;;;;;;;32.06;52.31;100328.52;105882;1254;60496;-73
2023/08/19 09:19:41;;;;;;;8.70;7.90;;;;;;;32.42;50.16;100326.86;105953;1255;60302;-74
2023/08/19 09:22:15;;;;;;;9.60;8.40;;;;;;;32.81;49.28;100327.31;106103;1254;72600;-74
2023/08/19 09:24:43;;;;;;;9.80;8.50;;;;;;;33.16;49.77;100317.65;106046;1254;69936;-74
2023/08/19 09:27:11;;;;;;;10.90;8.40;;;;;;;33.56;50.39;100318.94;105891;1253;71086;-75
2023/08/19 09:29:51;;;;;;;12.80;7.90;;;;;;;34.04;50.89;100314.86;105827;1254;60427;-74
2023/08/19 09:32:29;;;;;;;10.50;7.40;;;;;;;34.52;49.20;100315.77;105909;1254;60476;-75
2023/08/19 09:35:00;;;;;;;10.60;7.20;;;;;;;35.01;47.84;100315.75;106008;1254;63686;-74
2023/08/19 09:37:29;;;;;;;8.20;7.30;;;;;;;35.41;47.42;100313.54;105962;1254;61510;-76
2023/08/19 09:39:57;;;;;;;8.00;7.20;;;;;;;35.73;45.99;100307.40;105991;1256;63726;-73
2023/08/19 09:42:26;;;;;;;7.80;6.60;;;;;;;35.89;43.77;100306.09;106069;1254;60555;-74
2023/08/19 09:44:53;;;;;;;9.90;7.20;;;;;;;35.90;42.95;100309.21;106717;1252;60473;-73
2023/08/19 09:47:21;;;;;;;9.90;7.20;;;;;;;35.95;43.93;100310.30;106727;1256;63635;-72
2023/08/19 09:49:52;;;;;;;13.00;8.20;;;;;;;36.06;44.39;100308.25;106249;1252;61399;-74
2023/08/19 09:52:19;;;;;;;8.00;7.30;;;;;;;36.07;43.55;100302.23;106223;1252;74630;-75
2023/08/19 09:54:52;;;;;;;9.10;7.40;;;;;;;36.03;43.11;100300.55;106116;1254;60431;-74
2023/08/19 09:57:46;;;;;;;9.40;8.10;;;;;;;36.11;43.84;100298.69;105796;1254;60553;-72
2023/08/19 10:00:13;;;;;;;11.20;8.30;;;;;;;36.32;43.20;100290.39;105680;1252;63761;-74
2023/08/19 10:02:41;;;;;;;8.40;7.60;;;;;;;36.56;43.42;100290.52;105977;1253;61386;-74
2023/08/19 10:05:08;;;;;;;9.60;8.30;;;;;;;36.87;44.86;100286.35;105823;1254;63818;-71
2023/08/19 10:07:37;;;;;;;9.60;7.90;;;;;;;37.22;44.13;100280.83;105732;1254;60502;-73
2023/08/19 10:10:06;;;;;;;8.70;7.50;;;;;;;37.57;43.08;100279.31;105734;1252;60554;-73
2023/08/19 10:12:37;;;;;;;8.30;7.50;;;;;;;37.80;42.32;100274.94;105883;1254;65115;-72
2023/08/19 10:15:05;;;;;;;13.00;8.90;;;;;;;37.90;41.90;100276.33;106094;1254;60840;-76
2023/08/19 10:17:33;;;;;;;8.10;7.10;;;;;;;37.97;41.79;100278.97;105856;1254;63728;-75
2023/08/19 10:20:05;;;;;;;7.50;6.80;;;;;;;38.09;40.35;100279.02;105782;1257;60466;-75
2023/08/19 10:22:34;;;;;;;7.30;6.60;;;;;;;38.30;39.20;100280.17;105924;1254;60528;-74
2023/08/19 10:25:04;;;;;;;7.50;6.70;;;;;;;38.52;37.99;100276.13;106025;1252;63853;-76
2023/08/19 10:27:31;;;;;;;8.70;7.80;;;;;;;38.70;38.16;100279.98;105766;1254;61595;-76
2023/08/19 10:29:59;;;;;;;7.40;6.70;;;;;;;38.88;38.78;100283.52;105858;1254;63770;-75
2023/08/19 10:32:27;;;;;;;8.30;7.40;;;;;;;39.09;38.37;100276.13;105828;1254;60411;-75
2023/08/19 10:35:09;;;;;;;10.20;6.70;;;;;;;39.32;38.21;100269.38;105794;1259;60622;-73
2023/08/19 10:37:42;;;;;;;8.70;7.60;;;;;;;39.55;37.57;100271.62;106013;1256;64890;-77
2023/08/19 10:40:14;;;;;;;7.00;6.40;;;;;;;39.75;39.01;100272.91;105627;1259;60509;-78
2023/08/19 10:42:42;;;;;;;12.20;7.30;;;;;;;39.91;39.27;100264.56;105792;1254;64222;-78
2023/08/19 10:45:18;;;;;;;7.80;7.10;;;;;;;40.14;38.65;100262.02;105713;1254;60482;-76
2023/08/19 10:47:46;;;;;;;10.20;7.60;;;;;;;40.29;37.82;100259.81;105794;1259;60395;-79
2023/08/19 10:50:14;;;;;;;9.50;6.70;;;;;;;40.45;39.20;100259.68;105741;1260;63616;-80
2023/08/19 10:53:03;;;;;;;9.40;7.50;;;;;;;40.59;38.24;100256.14;106078;1257;60526;-76
2023/08/19 10:55:50;;;;;;;7.40;6.70;;;;;;;40.52;36.79;100259.64;106133;1254;63847;-79
2023/08/19 10:58:18;;;;;;;8.00;6.90;;;;;;;40.39;36.75;100261.04;106446;1254;60363;-79
2023/08/19 11:00:45;;;;;;;7.30;6.70;;;;;;;40.36;36.71;100255.15;106655;1253;60407;-77
2023/08/19 11:03:13;;;;;;;8.00;6.50;;;;;;;40.46;37.27;100253.12;106169;1256;65052;-78
2023/08/19 11:05:50;;;;;;;8.60;7.20;;;;;;;40.56;37.34;100251.45;106252;1259;60526;-80
2023/08/19 11:08:18;;;;;;;10.30;6.50;;;;;;;40.54;36.53;100251.90;106485;1257;62453;-79
2023/08/19 11:10:46;;;;;;;8.50;6.90;;;;;;;40.50;36.99;100250.92;106096;1254;60629;-82
2023/08/19 11:13:13;;;;;;;7.00;6.40;;;;;;;40.58;36.04;100251.51;107397;1252;60665;-82
2023/08/19 11:15:41;;;;;;;9.10;7.10;;;;;;;40.54;35.26;100252.30;106179;1257;63742;-80
2023/08/19 11:18:09;;;;;;;7.50;6.80;;;;;;;40.30;36.41;100250.39;106028;1254;60367;-82